createdAt,value
2023-03-10T00:01:12.850Z,5.37
2023-03-10T00:03:47.679Z,5.30
2023-03-10T00:06:23.019Z,5.60
2023-03-10T00:08:57.331Z,5.37
2023-03-10T00:11:31.940Z,5.63
2023-03-10T00:14:05.351Z,5.63
2023-03-10T00:16:38.787Z,5.33
2023-03-10T00:19:12.358Z,5.53
2023-03-10T00:21:46.222Z,5.50
2023-03-10T00:24:19.743Z,6.07
2023-03-10T00:26:54.159Z,6.27
2023-03-10T00:29:28.172Z,6.07
2023-03-10T00:32:01.791Z,6.03
2023-03-10T00:34:37.690Z,6.40
2023-03-10T00:37:10.807Z,6.43
2023-03-10T00:39:44.429Z,6.40
2023-03-10T00:42:17.821Z,6.57
2023-03-10T00:44:53.470Z,5.83
2023-03-10T00:47:28.505Z,6.43
2023-03-10T00:50:01.982Z,6.23
2023-03-10T00:52:36.982Z,6.17
2023-03-10T00:55:13.775Z,6.30
2023-03-10T00:57:47.404Z,6.63
2023-03-10T01:00:24.599Z,6.93
2023-03-10T01:02:58.701Z,7.10
2023-03-10T01:05:32.388Z,7.63
2023-03-10T01:08:05.694Z,6.83
2023-03-10T01:10:39.137Z,6.63
2023-03-10T01:13:14.251Z,6.50
2023-03-10T01:15:49.302Z,7.00
2023-03-10T01:18:23.416Z,7.00
2023-03-10T01:20:57.785Z,7.07
2023-03-10T01:23:32.207Z,7.20
2023-03-10T01:26:05.343Z,7.20
2023-03-10T01:28:38.903Z,7.27
2023-03-10T01:31:13.345Z,7.60
2023-03-10T01:33:49.828Z,7.40
2023-03-10T01:36:25.967Z,7.20
2023-03-10T01:39:00.628Z,6.90
2023-03-10T01:41:34.773Z,6.97
2023-03-10T01:44:14.429Z,7.97
2023-03-10T01:46:51.358Z,8.47
2023-03-10T01:49:40.787Z,8.80
2023-03-10T01:52:19.686Z,11.63
2023-03-10T01:54:59.060Z,13.37
2023-03-10T01:57:36.558Z,12.13
2023-03-10T02:00:15.033Z,11.27
2023-03-10T02:02:59.270Z,9.28
2023-03-10T02:05:33.950Z,9.67
2023-03-10T02:08:10.668Z,8.70
2023-03-10T02:10:44.187Z,8.03
2023-03-10T02:13:19.613Z,8.50
2023-03-10T02:15:54.563Z,8.53
2023-03-10T02:18:29.977Z,8.67
2023-03-10T02:21:11.268Z,7.87
2023-03-10T02:24:01.011Z,9.40
2023-03-10T02:26:44.480Z,8.73
2023-03-10T02:29:23.805Z,8.60
2023-03-10T02:31:58.486Z,7.87
2023-03-10T02:34:32.996Z,7.90
2023-03-10T02:37:06.464Z,7.97
2023-03-10T02:39:40.088Z,7.17
2023-03-10T02:42:15.108Z,7.87
2023-03-10T02:44:50.220Z,7.80
2023-03-10T02:47:24.341Z,8.07
2023-03-10T02:49:58.336Z,8.27
2023-03-10T02:52:36.448Z,7.83
2023-03-10T02:55:15.991Z,8.23
2023-03-10T02:57:50.602Z,7.63
2023-03-10T03:00:25.635Z,7.43
2023-03-10T03:02:59.395Z,7.70
2023-03-10T03:05:33.142Z,7.87
2023-03-10T03:08:08.394Z,8.30
2023-03-10T03:10:42.378Z,8.73
2023-03-10T03:13:17.318Z,8.77
2023-03-10T03:15:51.393Z,8.20
2023-03-10T03:18:25.429Z,7.63
2023-03-10T03:20:59.417Z,8.33
2023-03-10T03:23:32.832Z,8.10
2023-03-10T03:26:14.906Z,8.20
2023-03-10T03:28:48.490Z,8.10
2023-03-10T03:31:26.893Z,8.40
2023-03-10T03:34:12.199Z,8.23
2023-03-10T03:36:45.926Z,7.87
2023-03-10T03:39:21.001Z,9.07
2023-03-10T03:41:58.677Z,10.17
2023-03-10T03:44:35.166Z,11.30
2023-03-10T03:47:10.687Z,14.40
2023-03-10T03:49:44.880Z,15.43
2023-03-10T03:52:18.266Z,15.50
2023-03-10T03:54:51.851Z,15.00
2023-03-10T03:57:25.984Z,17.47
2023-03-10T04:00:00.158Z,16.53
2023-03-10T04:02:34.674Z,15.90
2023-03-10T04:05:10.670Z,17.17
2023-03-10T04:07:44.692Z,16.73
2023-03-10T04:10:21.513Z,17.30
2023-03-10T04:12:54.957Z,16.63
2023-03-10T04:15:29.742Z,16.10
2023-03-10T04:18:04.411Z,16.37
2023-03-10T04:20:38.214Z,16.97
2023-03-10T04:23:12.425Z,16.40
2023-03-10T04:25:48.687Z,16.17
2023-03-10T04:28:23.181Z,17.43
2023-03-10T04:30:57.163Z,17.70
2023-03-10T04:33:33.245Z,17.57
2023-03-10T04:36:08.936Z,17.50
2023-03-10T04:38:42.697Z,16.37
2023-03-10T04:41:17.877Z,17.53
2023-03-10T04:43:52.494Z,16.60
2023-03-10T04:46:26.020Z,16.10
2023-03-10T04:48:59.694Z,16.77
2023-03-10T04:51:33.085Z,16.80
2023-03-10T04:54:06.684Z,17.13
2023-03-10T04:56:40.282Z,16.00
2023-03-10T04:59:15.117Z,15.47
2023-03-10T05:01:48.825Z,14.80
2023-03-10T05:04:23.149Z,14.70
2023-03-10T05:06:57.236Z,16.00
2023-03-10T05:09:38.235Z,16.03
2023-03-10T05:12:13.376Z,16.77
2023-03-10T05:14:47.762Z,17.17
2023-03-10T05:17:21.769Z,16.53
2023-03-10T05:19:55.241Z,16.57
2023-03-10T05:22:28.507Z,15.63
2023-03-10T05:25:02.228Z,15.90
2023-03-10T05:27:37.817Z,16.67
2023-03-10T05:30:16.211Z,17.73
2023-03-10T05:32:52.158Z,17.90
2023-03-10T05:35:27.230Z,17.17
2023-03-10T17:35:29.250Z,7.97
2023-03-10T17:38:02.950Z,8.70
2023-03-10T17:40:35.690Z,8.13
2023-03-10T17:43:29.598Z,7.60
2023-03-10T17:46:01.502Z,6.85
2023-03-10T17:48:34.870Z,6.67
2023-03-10T17:51:07.838Z,6.62
2023-03-10T17:53:40.428Z,6.50
2023-03-10T17:56:13.191Z,6.17
2023-03-10T17:58:45.767Z,5.70
2023-03-10T18:01:19.670Z,5.42
2023-03-10T18:03:52.360Z,5.10
2023-03-10T18:06:25.964Z,5.37
2023-03-10T18:08:59.431Z,5.10
2023-03-10T18:11:32.126Z,5.95
2023-03-10T18:14:04.615Z,5.70
2023-03-10T18:16:44.038Z,8.28
2023-03-10T18:19:17.861Z,7.45
2023-03-10T18:21:51.167Z,7.60
2023-03-10T18:24:24.119Z,7.75
2023-03-10T18:26:57.415Z,7.72
2023-03-10T18:29:29.986Z,8.25
2023-03-10T18:32:02.786Z,8.50
2023-03-10T18:34:35.547Z,9.03
2023-03-10T18:37:08.325Z,8.30
2023-03-10T18:39:41.435Z,9.68
2023-03-10T18:42:14.298Z,9.70
2023-03-10T18:44:48.099Z,8.43
2023-03-10T18:47:21.294Z,8.80
2023-03-10T18:49:55.322Z,8.98
2023-03-10T18:52:27.873Z,7.62
2023-03-10T18:55:01.474Z,7.83
2023-03-10T18:57:34.254Z,8.35
2023-03-10T19:00:08.968Z,9.23
2023-03-10T19:02:42.108Z,9.50
2023-03-10T19:05:16.089Z,7.97
2023-03-10T19:07:50.295Z,8.15
2023-03-10T19:10:24.709Z,8.95
2023-03-10T19:12:58.007Z,9.45
2023-03-10T19:15:31.293Z,10.68
2023-03-10T19:18:04.088Z,10.18
2023-03-10T19:20:36.860Z,9.93
2023-03-10T19:23:09.801Z,9.83
2023-03-10T19:25:42.622Z,10.58
2023-03-10T19:28:15.404Z,10.88
2023-03-10T19:30:47.985Z,10.72
2023-03-10T19:33:20.624Z,10.15
2023-03-10T19:36:01.204Z,10.30
2023-03-10T19:38:35.340Z,10.30
2023-03-10T19:41:11.943Z,9.55
2023-03-10T19:43:44.935Z,9.55
2023-03-10T19:46:20.510Z,10.72
2023-03-10T19:48:53.209Z,11.10
2023-03-10T19:51:27.135Z,10.93
2023-03-10T19:54:03.099Z,10.95
2023-03-10T19:56:35.903Z,10.10
2023-03-10T19:59:09.044Z,9.80
2023-03-10T20:01:42.662Z,10.15
2023-03-10T20:04:15.012Z,10.32
2023-03-10T20:06:47.856Z,10.72
2023-03-10T20:09:20.576Z,13.20
2023-03-10T20:11:53.156Z,12.43
2023-03-10T20:14:26.146Z,10.50
2023-03-10T20:16:59.735Z,10.25
2023-03-10T20:19:32.310Z,9.03
2023-03-10T20:22:04.991Z,8.93
2023-03-10T20:24:37.514Z,8.53
2023-03-10T20:27:09.881Z,11.50
2023-03-10T20:29:43.431Z,9.55
2023-03-10T20:32:16.081Z,9.48
2023-03-10T20:34:51.051Z,9.73
2023-03-10T20:37:26.896Z,9.13
2023-03-10T20:39:59.749Z,9.30
2023-03-10T20:42:34.963Z,9.28
2023-03-10T20:45:09.334Z,9.78
2023-03-10T20:47:41.917Z,9.00
2023-03-10T20:50:16.731Z,9.10
2023-03-10T20:52:49.513Z,9.33
2023-03-10T20:55:23.344Z,9.25
2023-03-10T20:57:57.890Z,10.43
2023-03-10T21:00:31.756Z,9.28
2023-03-10T21:03:04.531Z,9.53
2023-03-10T21:05:37.307Z,9.20
2023-03-10T21:08:10.085Z,9.43
2023-03-10T21:10:49.315Z,9.60
2023-03-10T21:13:22.501Z,10.25
2023-03-10T21:15:54.986Z,9.80
2023-03-10T21:18:27.557Z,10.18
2023-03-10T21:21:07.322Z,10.28
2023-03-10T21:23:46.845Z,9.63
2023-03-10T21:26:22.598Z,9.58
2023-03-10T21:28:56.581Z,9.80
2023-03-10T21:31:29.336Z,9.40
2023-03-10T21:34:02.300Z,9.30
2023-03-10T21:36:35.461Z,9.53
2023-03-10T21:39:09.874Z,9.43
2023-03-10T21:41:42.669Z,9.58
2023-03-10T21:44:17.076Z,12.47
2023-03-10T21:46:50.934Z,13.72
2023-03-10T21:49:23.872Z,14.30
2023-03-10T21:51:56.861Z,13.88
2023-03-10T21:54:29.457Z,13.75
2023-03-10T21:57:02.205Z,12.80
2023-03-10T21:59:35.600Z,12.45
2023-03-10T22:02:08.792Z,12.65
2023-03-10T22:04:41.404Z,13.15
2023-03-10T22:07:14.156Z,12.98
2023-03-10T22:09:47.212Z,13.43
2023-03-10T22:12:20.125Z,12.75
2023-03-10T22:14:56.617Z,11.80
2023-03-10T22:17:29.368Z,12.75
2023-03-10T22:20:02.361Z,12.82
2023-03-10T22:22:35.146Z,13.10
2023-03-10T22:25:09.446Z,12.93
2023-03-10T22:27:42.126Z,11.50
2023-03-10T22:30:15.929Z,11.65
2023-03-10T22:32:49.983Z,11.70
2023-03-10T22:35:24.024Z,11.57
2023-03-10T22:37:56.558Z,13.00
2023-03-10T22:40:29.297Z,11.78
2023-03-10T22:43:03.111Z,12.40
2023-03-10T22:45:38.953Z,12.80
2023-03-10T22:48:11.947Z,12.40
2023-03-10T22:50:46.973Z,13.13
2023-03-10T22:53:21.393Z,14.05
2023-03-10T22:55:55.194Z,13.48
2023-03-10T22:58:29.090Z,13.22
2023-03-10T23:01:01.782Z,12.45
2023-03-10T23:03:35.787Z,12.60
2023-03-10T23:16:07.666Z,12.37
2023-03-10T23:18:40.392Z,13.00
2023-03-10T23:21:18.499Z,13.28
2023-03-10T23:23:52.505Z,13.45
2023-03-10T23:26:25.284Z,13.55
2023-03-10T23:28:57.871Z,13.85
2023-03-10T23:31:31.178Z,13.38
2023-03-10T23:34:03.628Z,12.85
2023-03-10T23:36:36.406Z,13.83
2023-03-10T23:39:11.673Z,13.53
2023-03-10T23:41:45.649Z,13.98
2023-03-10T23:44:23.146Z,14.70
2023-03-10T23:46:56.942Z,14.47
2023-03-10T23:49:33.423Z,14.00
2023-03-10T23:52:07.453Z,15.70
2023-03-10T23:54:40.216Z,14.58
2023-03-10T23:57:19.538Z,15.53
2023-03-10T23:59:55.187Z,16.85
